createdAt,value
2023-03-17T03:59:10.813Z,0.00
2023-03-17T04:00:10.760Z,0.00
2023-03-17T04:01:10.752Z,0.00
2023-03-17T04:02:10.753Z,0.00
2023-03-17T04:03:10.834Z,0.00
2023-03-17T04:04:10.720Z,0.00
2023-03-17T04:05:10.711Z,0.00
2023-03-17T04:06:10.719Z,0.00
2023-03-17T04:07:10.721Z,0.00
2023-03-17T04:08:10.712Z,0.00
2023-03-17T04:09:10.678Z,0.00
2023-03-17T04:10:10.685Z,0.00
2023-03-17T04:11:10.686Z,0.00
2023-03-17T04:12:10.653Z,0.00
2023-03-17T04:13:10.659Z,0.00
2023-03-17T04:14:10.664Z,0.00
2023-03-17T04:15:10.685Z,0.00
2023-03-17T04:16:10.637Z,0.00
2023-03-17T04:17:10.671Z,0.00
2023-03-17T04:18:10.649Z,0.00
2023-03-17T04:19:10.678Z,0.00
2023-03-17T04:20:10.622Z,0.00
2023-03-17T04:21:10.624Z,0.00
2023-03-17T04:22:10.613Z,0.00
2023-03-17T04:23:10.632Z,0.00
2023-03-17T04:24:10.604Z,0.00
2023-03-17T04:25:10.585Z,0.00
2023-03-17T04:26:10.619Z,0.00
2023-03-17T04:27:10.589Z,0.00
2023-03-17T04:28:10.605Z,0.00
2023-03-17T04:29:10.587Z,0.00
2023-03-17T04:30:10.571Z,0.00
2023-03-17T04:31:10.623Z,0.00
2023-03-17T04:32:10.577Z,0.00
2023-03-17T04:33:10.629Z,0.00
2023-03-17T04:34:10.554Z,0.00
2023-03-17T04:35:10.569Z,0.00
2023-03-17T04:36:10.563Z,0.00
2023-03-17T04:37:10.561Z,0.00
2023-03-17T04:38:10.562Z,0.00
2023-03-17T04:39:10.569Z,0.00
2023-03-17T04:40:10.540Z,0.00
2023-03-17T04:41:10.537Z,0.00
2023-03-17T04:42:10.512Z,0.00
2023-03-17T04:43:10.529Z,0.00
2023-03-17T04:44:10.519Z,0.00
2023-03-17T04:45:10.502Z,0.00
2023-03-17T04:46:10.581Z,0.00
2023-03-17T04:47:10.541Z,0.00
2023-03-17T04:48:10.503Z,0.00
2023-03-17T04:49:10.495Z,0.00
2023-03-17T04:50:10.509Z,0.00
2023-03-17T04:51:11.776Z,0.00
2023-03-17T04:52:10.521Z,0.00
2023-03-17T04:53:10.536Z,0.00
2023-03-17T04:54:10.464Z,0.00
2023-03-17T04:55:10.488Z,0.00
2023-03-17T04:56:10.451Z,0.00
2023-03-17T04:57:10.447Z,0.00
2023-03-17T04:58:15.446Z,0.00
2023-03-17T04:59:10.452Z,0.00
2023-03-17T05:00:10.461Z,0.00
2023-03-17T05:01:10.484Z,0.00
2023-03-17T05:02:10.532Z,0.00
2023-03-17T05:03:24.088Z,0.00
2023-03-17T05:04:12.762Z,0.00
2023-03-17T05:05:10.419Z,0.00
2023-03-17T05:06:10.430Z,0.00
2023-03-17T05:07:10.403Z,0.00
2023-03-17T05:08:10.420Z,0.00
2023-03-17T05:09:10.409Z,0.00
2023-03-17T05:10:10.419Z,0.00
2023-03-17T05:11:10.393Z,0.00
2023-03-17T05:12:10.390Z,0.00
2023-03-17T05:13:10.405Z,0.00
2023-03-17T05:14:10.400Z,0.00
2023-03-17T05:15:10.383Z,0.00
2023-03-17T05:16:10.402Z,0.00
2023-03-17T05:17:10.358Z,0.00
2023-03-17T05:18:10.366Z,0.00
2023-03-17T05:19:10.383Z,0.00
2023-03-17T05:20:10.387Z,0.00
2023-03-17T05:21:10.361Z,0.00
2023-03-17T05:22:10.349Z,0.00
2023-03-17T05:23:10.354Z,0.00
2023-03-17T05:24:10.355Z,0.00
2023-03-17T05:25:10.365Z,0.00
2023-03-17T05:26:10.321Z,0.00
2023-03-17T05:27:10.329Z,0.00
2023-03-17T05:28:10.341Z,0.00
2023-03-17T05:29:10.312Z,0.00
2023-03-17T05:30:10.362Z,0.00
2023-03-17T05:31:11.021Z,0.00
2023-03-17T05:32:10.294Z,0.00
2023-03-17T05:33:10.329Z,0.00
2023-03-17T05:34:10.287Z,0.00
2023-03-17T05:35:10.334Z,0.00
2023-03-17T05:36:10.290Z,0.00
2023-03-17T05:37:10.290Z,0.00
2023-03-17T05:38:10.290Z,0.00
2023-03-17T05:39:10.300Z,0.00
2023-03-17T05:40:10.249Z,0.00
2023-03-17T05:41:10.280Z,0.00
2023-03-17T05:42:10.282Z,0.00
2023-03-17T05:43:10.249Z,0.00
2023-03-17T05:44:10.266Z,0.00
2023-03-17T05:45:10.237Z,0.00
2023-03-17T05:46:10.279Z,0.00
2023-03-17T05:47:10.259Z,5.63
2023-03-17T05:48:10.252Z,5.63
2023-03-17T05:49:10.269Z,5.63
2023-03-17T05:50:10.265Z,5.63
2023-03-17T05:51:10.253Z,5.63
2023-03-17T05:52:10.216Z,5.63
2023-03-17T05:53:10.227Z,5.63
2023-03-17T05:54:10.207Z,5.63
2023-03-17T05:55:10.219Z,5.63
2023-03-17T05:56:10.206Z,5.63
2023-03-17T05:57:10.189Z,5.63
2023-03-17T05:58:10.197Z,11.25
2023-03-17T05:59:10.208Z,11.25
2023-03-17T06:00:12.630Z,11.25
2023-03-17T06:01:10.212Z,11.25
2023-03-17T06:02:10.191Z,11.25
2023-03-17T06:03:10.219Z,11.25
2023-03-17T06:04:10.165Z,11.25
2023-03-17T06:05:10.184Z,11.25
2023-03-17T06:06:10.172Z,11.25
2023-03-17T06:07:10.156Z,16.88
2023-03-17T06:08:10.144Z,16.88
2023-03-17T06:09:10.140Z,16.88
2023-03-17T06:10:11.087Z,16.88
2023-03-17T06:11:10.161Z,16.88
2023-03-17T06:12:10.136Z,16.88
2023-03-17T06:13:10.151Z,16.88
2023-03-17T06:14:10.133Z,16.88
2023-03-17T06:15:10.130Z,16.88
2023-03-17T06:16:10.235Z,16.88
2023-03-17T06:17:10.109Z,16.88
2023-03-17T06:18:10.095Z,16.88
2023-03-17T06:19:10.104Z,16.88
2023-03-17T06:20:10.121Z,22.50
2023-03-17T06:21:10.095Z,22.50
2023-03-17T06:22:10.119Z,22.50
2023-03-17T06:23:10.101Z,22.50
2023-03-17T06:24:10.097Z,33.75
2023-03-17T06:25:10.107Z,45.00
2023-03-17T06:26:10.065Z,45.00
2023-03-17T06:27:10.067Z,50.63
2023-03-17T06:28:10.056Z,45.00
2023-03-17T06:29:10.092Z,45.00
2023-03-17T06:30:10.080Z,39.38
2023-03-17T06:31:10.127Z,45.00
2023-03-17T06:32:20.292Z,45.00
2023-03-17T06:33:10.189Z,45.00
2023-03-17T06:34:10.044Z,45.00
2023-03-17T06:35:10.027Z,45.00
2023-03-17T06:36:10.079Z,50.63
2023-03-17T06:37:10.044Z,56.25
2023-03-17T06:38:10.019Z,61.88
2023-03-17T06:42:08.012Z,61.88
2023-03-17T06:43:07.958Z,61.88
2023-03-17T06:44:07.970Z,61.88
2023-03-17T06:46:08.123Z,67.50
2023-03-17T06:47:08.051Z,67.50
2023-03-17T06:48:07.947Z,61.88
2023-03-17T06:49:07.950Z,67.50
2023-03-17T06:50:08.033Z,67.50
2023-03-17T06:51:08.012Z,73.13
2023-03-17T06:52:07.923Z,67.50
2023-03-17T06:53:07.915Z,78.75
2023-03-17T06:54:07.923Z,84.38
2023-03-17T06:55:07.915Z,84.38
2023-03-17T06:56:12.552Z,78.75
2023-03-17T06:57:07.907Z,78.75
2023-03-17T06:58:07.912Z,84.38
2023-03-17T06:59:07.928Z,78.75
2023-03-17T07:00:07.912Z,90.00
2023-03-17T07:01:08.005Z,78.75
2023-03-17T07:02:08.008Z,90.00
2023-03-17T07:03:07.893Z,90.00
2023-03-17T07:04:07.977Z,90.00
2023-03-17T07:05:07.888Z,90.00
2023-03-17T07:06:07.983Z,50.63
2023-03-17T07:07:07.881Z,84.38
2023-03-17T07:08:07.870Z,95.63
2023-03-17T07:09:07.872Z,78.75
2023-03-17T07:11:07.871Z,101.25
2023-03-17T07:12:07.856Z,67.50
2023-03-17T07:13:07.886Z,90.00
2023-03-17T07:14:07.981Z,95.63
2023-03-17T07:15:07.856Z,84.38
2023-03-17T07:16:07.997Z,95.63
2023-03-17T07:17:07.838Z,78.75
2023-03-17T07:18:07.830Z,78.75
2023-03-17T07:19:07.850Z,84.38
2023-03-17T07:20:07.887Z,90.00
2023-03-17T07:21:07.840Z,90.00
2023-03-17T07:22:07.854Z,95.63
2023-03-17T07:23:07.820Z,95.63
2023-03-17T07:24:07.857Z,101.25
2023-03-17T07:25:07.990Z,90.00
2023-03-17T07:26:07.841Z,95.63
2023-03-17T07:27:07.817Z,95.63
2023-03-17T07:28:07.800Z,90.00
2023-03-17T07:29:07.796Z,90.00
2023-03-17T07:30:07.972Z,84.38
2023-03-17T07:31:07.895Z,78.75
2023-03-17T07:32:07.823Z,78.75
2023-03-17T07:33:07.977Z,78.75
2023-03-17T07:34:07.807Z,78.75
2023-03-17T07:35:07.797Z,90.00
2023-03-17T07:36:07.889Z,73.13
2023-03-17T07:37:07.812Z,73.13
2023-03-17T07:38:07.766Z,73.13
2023-03-17T07:39:10.138Z,90.00
2023-03-17T07:40:07.767Z,84.38
2023-03-17T07:41:07.797Z,84.38
2023-03-17T07:42:07.834Z,90.00
2023-03-17T07:43:07.773Z,73.13
2023-03-17T07:44:07.761Z,95.63
2023-03-17T07:45:07.761Z,84.38
2023-03-17T07:46:07.816Z,78.75
2023-03-17T07:47:07.781Z,73.13
2023-03-17T07:48:07.758Z,73.13
2023-03-17T07:49:07.767Z,67.50
2023-03-17T07:50:07.734Z,67.50
2023-03-17T07:51:07.804Z,73.13
2023-03-17T07:52:07.820Z,78.75
2023-03-17T07:53:07.734Z,73.13
2023-03-17T07:54:07.737Z,78.75
2023-03-17T07:55:07.739Z,90.00
2023-03-17T07:56:07.734Z,90.00
2023-03-17T07:57:07.722Z,90.00
2023-03-17T07:58:07.816Z,95.63
2023-03-17T07:59:07.760Z,84.38
2023-03-17T08:00:07.739Z,90.00
2023-03-17T08:01:07.725Z,90.00
2023-03-17T08:02:07.845Z,95.63
2023-03-17T08:03:10.578Z,101.25
2023-03-17T08:04:07.803Z,101.25
2023-03-17T08:05:07.725Z,106.88
2023-03-17T08:06:07.707Z,84.38
2023-03-17T08:07:07.720Z,106.88
2023-03-17T08:08:07.702Z,95.63
2023-03-17T08:09:07.781Z,90.00
2023-03-17T08:10:07.682Z,112.50
2023-03-17T08:11:07.748Z,112.50
2023-03-17T08:12:07.740Z,112.50
2023-03-17T08:13:07.728Z,112.50
2023-03-17T08:15:07.682Z,112.50
2023-03-17T08:16:07.826Z,90.00
2023-03-17T08:17:08.108Z,84.38
2023-03-17T08:18:07.721Z,101.25
2023-03-17T08:19:07.728Z,95.63
2023-03-17T08:20:07.688Z,101.25
2023-03-17T08:21:07.714Z,101.25
2023-03-17T08:22:07.693Z,101.25
2023-03-17T08:23:07.657Z,101.25
2023-03-17T08:24:07.689Z,101.25
2023-03-17T08:25:07.695Z,90.00
2023-03-17T08:26:07.672Z,84.38
2023-03-17T08:27:07.679Z,90.00
2023-03-17T08:28:07.675Z,95.63
2023-03-17T08:29:07.683Z,101.25
2023-03-17T08:30:07.732Z,95.63
2023-03-17T08:31:09.223Z,95.63
2023-03-17T08:32:07.924Z,95.63
2023-03-17T08:33:08.238Z,95.63
2023-03-17T08:34:07.638Z,95.63
2023-03-17T08:35:07.638Z,90.00
2023-03-17T08:36:07.694Z,95.63
2023-03-17T08:37:10.168Z,95.63
2023-03-17T08:38:09.182Z,101.25
2023-03-17T08:39:07.647Z,101.25
2023-03-17T08:40:07.613Z,101.25
2023-03-17T08:41:07.655Z,101.25
2023-03-17T08:42:07.609Z,101.25
2023-03-17T08:43:08.027Z,101.25
2023-03-17T08:44:07.629Z,106.88
2023-03-17T08:45:07.636Z,106.88
2023-03-17T08:46:07.795Z,106.88
2023-03-17T08:47:07.603Z,106.88
2023-03-17T08:48:07.600Z,106.88
2023-03-17T08:49:07.608Z,106.88
2023-03-17T08:50:07.841Z,106.88
2023-03-17T08:51:07.608Z,106.88
2023-03-17T08:52:07.773Z,106.88
2023-03-17T08:53:07.676Z,106.88
2023-03-17T08:54:07.702Z,106.88
2023-03-17T08:56:40.142Z,101.25
2023-03-17T08:57:40.170Z,101.25
2023-03-17T08:58:40.123Z,106.88
2023-03-17T08:59:40.160Z,106.88
2023-03-17T09:00:40.132Z,106.88
2023-03-17T09:01:40.320Z,106.88
2023-03-17T09:02:40.189Z,106.88
2023-03-17T09:03:40.118Z,112.50
2023-03-17T09:04:40.300Z,112.50
2023-03-17T09:05:40.134Z,112.50
2023-03-17T09:07:40.142Z,112.50
2023-03-17T09:08:40.122Z,106.88
2023-03-17T09:09:40.140Z,112.50
2023-03-17T09:10:41.172Z,112.50
2023-03-17T09:11:40.113Z,106.88
2023-03-17T09:12:40.168Z,106.88
2023-03-17T09:13:40.310Z,106.88
2023-03-17T09:14:43.711Z,106.88
2023-03-17T09:15:40.339Z,118.13
2023-03-17T09:16:40.181Z,118.13
2023-03-17T09:17:40.092Z,123.75
2023-03-17T09:18:40.100Z,123.75
2023-03-17T09:19:40.108Z,112.50
2023-03-17T09:20:40.122Z,118.13
2023-03-17T09:21:40.134Z,118.13
2023-03-17T09:22:40.101Z,123.75
2023-03-17T09:23:40.080Z,129.38
2023-03-17T09:24:40.082Z,123.75
2023-03-17T09:25:40.117Z,123.75
2023-03-17T09:26:40.094Z,118.13
2023-03-17T09:27:40.152Z,118.13
2023-03-17T09:28:40.147Z,112.50
2023-03-17T09:29:40.105Z,112.50
2023-03-17T09:30:40.079Z,112.50
2023-03-17T09:31:40.159Z,112.50
2023-03-17T09:32:40.132Z,112.50
2023-03-17T09:33:40.067Z,112.50
2023-03-17T09:34:40.132Z,118.13
2023-03-17T09:35:40.324Z,118.13
2023-03-17T09:36:40.141Z,123.75
2023-03-17T09:37:40.080Z,118.13
2023-03-17T09:38:40.100Z,123.75
2023-03-17T09:39:40.073Z,123.75
2023-03-17T09:40:40.087Z,129.38
2023-03-17T09:41:40.087Z,129.38
2023-03-17T09:42:40.239Z,129.38
2023-03-17T09:43:40.071Z,135.00
2023-03-17T09:44:40.076Z,135.00
2023-03-17T09:45:42.984Z,135.00
2023-03-17T09:46:40.127Z,140.63
2023-03-17T09:47:42.275Z,146.25
2023-03-17T09:48:40.064Z,151.88
2023-03-17T09:49:40.104Z,146.25
2023-03-17T09:50:40.054Z,146.25
2023-03-17T09:51:40.072Z,146.25
2023-03-17T09:52:40.074Z,146.25
2023-03-17T09:53:40.101Z,146.25
2023-03-17T09:54:40.082Z,146.25
2023-03-17T09:55:40.087Z,140.63
2023-03-17T09:56:40.073Z,140.63
2023-03-17T09:57:40.214Z,129.38
2023-03-17T09:58:40.074Z,123.75
2023-03-17T09:59:40.058Z,123.75
2023-03-17T10:00:40.040Z,129.38
2023-03-17T10:01:40.103Z,135.00
2023-03-17T10:13:31.019Z,146.25
2023-03-17T10:14:30.968Z,157.50
2023-03-17T10:15:31.288Z,157.50
2023-03-17T10:16:31.039Z,168.75
2023-03-17T10:17:30.963Z,151.88
2023-03-17T10:18:31.000Z,140.63
2023-03-17T10:19:30.944Z,163.13
2023-03-17T10:20:31.011Z,157.50
2023-03-17T10:21:30.960Z,157.50
2023-03-17T10:22:30.937Z,157.50
2023-03-17T10:23:31.006Z,163.13
2023-03-17T10:24:30.950Z,163.13
2023-03-17T10:25:31.488Z,157.50
2023-03-17T10:26:30.969Z,163.13
2023-03-17T10:27:30.975Z,157.50
2023-03-17T10:28:31.096Z,163.13
2023-03-17T10:29:31.040Z,163.13
2023-03-17T10:30:31.157Z,168.75
2023-03-17T10:31:31.115Z,168.75
2023-03-17T10:32:31.035Z,163.13
2023-03-17T10:33:30.974Z,163.13
2023-03-17T10:34:30.929Z,174.38
2023-03-17T10:35:31.190Z,174.38
2023-03-17T10:36:30.935Z,174.38
2023-03-17T10:37:31.028Z,174.38
2023-03-17T10:38:30.961Z,168.75
2023-03-17T10:39:32.858Z,163.13
2023-03-17T10:40:31.708Z,174.38
2023-03-17T10:41:30.970Z,174.38
2023-03-17T10:42:30.954Z,168.75
2023-03-17T10:43:30.987Z,168.75
2023-03-17T10:44:30.934Z,174.38
2023-03-17T10:45:31.017Z,174.38
2023-03-17T10:46:31.265Z,174.38
2023-03-17T10:47:31.522Z,174.38
2023-03-17T10:48:30.967Z,180.00
2023-03-17T10:49:30.943Z,185.63
2023-03-17T10:50:31.345Z,191.25
2023-03-17T10:51:30.953Z,196.88
2023-03-17T10:52:30.959Z,196.88
2023-03-17T10:53:30.958Z,185.63
2023-03-17T10:54:30.943Z,191.25
2023-03-17T10:55:30.958Z,185.63
2023-03-17T10:56:30.993Z,185.63
2023-03-17T10:57:30.972Z,180.00
2023-03-17T10:58:31.023Z,174.38
2023-03-17T11:00:31.226Z,185.63
2023-03-17T11:01:31.121Z,191.25
2023-03-17T11:03:30.994Z,202.50
2023-03-17T11:04:30.969Z,202.50
2023-03-17T11:05:30.949Z,202.50
2023-03-17T11:06:30.970Z,202.50
2023-03-17T11:07:30.960Z,213.75
2023-03-17T11:08:30.955Z,213.75
2023-03-17T11:09:30.959Z,213.75
2023-03-17T11:10:31.130Z,213.75
2023-03-17T11:11:30.962Z,213.75
2023-03-17T11:12:30.985Z,213.75
2023-03-17T11:13:31.002Z,213.75
2023-03-17T11:14:30.997Z,208.13
2023-03-17T11:15:30.980Z,202.50
2023-03-17T11:16:31.021Z,213.75
2023-03-17T11:17:31.168Z,202.50
2023-03-17T11:18:32.116Z,225.00
2023-03-17T11:19:30.981Z,225.00
2023-03-17T11:20:31.293Z,219.38
2023-03-17T11:21:30.988Z,219.38
2023-03-17T11:22:30.987Z,225.00
2023-03-17T11:23:30.996Z,241.88
2023-03-17T11:24:32.139Z,247.50
2023-03-17T11:25:30.975Z,241.88
2023-03-17T11:26:30.978Z,236.25
2023-03-17T11:27:31.018Z,241.88
2023-03-17T11:28:30.989Z,247.50
2023-03-17T11:29:30.991Z,247.50
2023-03-17T11:30:31.322Z,253.13
2023-03-17T11:31:31.109Z,258.75
2023-03-17T11:32:31.703Z,264.38
2023-03-17T11:33:32.142Z,270.00
2023-03-17T11:34:31.058Z,275.63
2023-03-17T11:35:31.091Z,270.00
2023-03-17T11:36:31.011Z,275.63
2023-03-17T11:37:31.037Z,270.00
2023-03-17T11:38:31.001Z,281.25
2023-03-17T11:39:31.036Z,275.63
2023-03-17T11:40:31.272Z,275.63
2023-03-17T11:41:31.038Z,281.25
2023-03-17T11:42:31.030Z,264.38
2023-03-17T11:43:31.024Z,270.00
2023-03-17T11:44:31.018Z,247.50
2023-03-17T11:45:31.002Z,270.00
2023-03-17T11:46:31.179Z,270.00
2023-03-17T11:47:31.031Z,270.00
2023-03-17T11:48:31.025Z,286.88
2023-03-17T11:49:31.044Z,292.50
2023-03-17T11:50:31.364Z,303.75
2023-03-17T11:51:31.070Z,320.63
2023-03-17T11:52:31.061Z,326.25
2023-03-17T11:53:31.069Z,331.88
2023-03-17T11:54:31.074Z,354.38
2023-03-17T11:55:31.096Z,337.50
2023-03-17T11:56:31.123Z,348.75
2023-03-17T11:57:31.099Z,337.50
2023-03-17T11:58:31.062Z,376.88
2023-03-17T11:59:31.094Z,343.13
2023-03-17T12:00:31.373Z,348.75
2023-03-17T12:01:31.110Z,371.25
2023-03-17T12:02:31.076Z,343.13
2023-03-17T12:03:31.157Z,343.13
2023-03-17T12:04:31.110Z,376.88
2023-03-17T12:05:31.171Z,382.50
2023-03-17T12:06:31.057Z,382.50
2023-03-17T12:07:31.079Z,376.88
2023-03-17T12:08:31.086Z,365.63
2023-03-17T12:09:31.081Z,360.00
2023-03-17T12:10:31.349Z,337.50
2023-03-17T12:11:31.073Z,365.63
2023-03-17T12:12:31.111Z,343.13
2023-03-17T12:13:31.178Z,388.13
2023-03-17T12:14:31.251Z,388.13
2023-03-17T12:15:31.149Z,331.88
2023-03-17T12:16:31.254Z,360.00
2023-03-17T12:17:32.813Z,365.63
2023-03-17T12:18:31.109Z,371.25
2023-03-17T12:19:31.245Z,360.00
2023-03-17T12:20:31.332Z,410.63
2023-03-17T12:21:31.153Z,393.75
2023-03-17T12:22:31.148Z,405.00
2023-03-17T12:23:31.115Z,427.50
2023-03-17T12:24:31.125Z,444.38
2023-03-17T12:25:31.122Z,444.38
2023-03-17T12:26:31.140Z,416.25
2023-03-17T12:27:31.137Z,427.50
2023-03-17T12:28:31.123Z,438.75
2023-03-17T12:29:31.134Z,405.00
2023-03-17T12:30:31.361Z,427.50
2023-03-17T12:31:31.234Z,393.75
2023-03-17T12:32:31.162Z,360.00
2023-03-17T12:33:31.154Z,348.75
2023-03-17T12:34:31.154Z,326.25
2023-03-17T12:35:31.326Z,309.38
2023-03-17T12:36:31.163Z,320.63
2023-03-17T12:37:31.215Z,320.63
2023-03-17T12:38:31.160Z,337.50
2023-03-17T12:39:31.151Z,320.63
2023-03-17T12:40:31.516Z,337.50
2023-03-17T12:41:31.155Z,337.50
2023-03-17T12:42:31.195Z,399.38
2023-03-17T12:43:31.167Z,483.75
2023-03-17T12:44:31.160Z,461.25
2023-03-17T12:45:31.379Z,444.38
2023-03-17T12:46:31.249Z,455.63
2023-03-17T12:47:31.190Z,478.13
2023-03-17T12:48:31.169Z,399.38
2023-03-17T12:49:31.179Z,315.00
2023-03-17T12:50:31.203Z,298.13
2023-03-17T12:51:31.203Z,315.00
2023-03-17T12:52:31.448Z,309.38
2023-03-17T12:53:31.219Z,309.38
2023-03-17T12:54:31.215Z,315.00
2023-03-17T12:55:31.457Z,348.75
2023-03-17T12:56:31.218Z,365.63
2023-03-17T12:57:31.253Z,371.25
2023-03-17T12:58:31.189Z,382.50
2023-03-17T12:59:31.230Z,427.50
2023-03-17T13:00:31.216Z,427.50
2023-03-17T13:01:31.222Z,478.13
2023-03-17T13:05:04.251Z,495.00
2023-03-17T13:06:04.278Z,568.13
2023-03-17T13:07:04.248Z,528.75
2023-03-17T13:08:04.253Z,483.75
2023-03-17T13:09:04.250Z,483.75
2023-03-17T13:10:04.240Z,343.13
2023-03-17T13:11:04.242Z,331.88
2023-03-17T13:12:04.242Z,365.63
2023-03-17T13:13:04.254Z,393.75
2023-03-17T13:14:04.261Z,388.13
2023-03-17T13:15:04.252Z,382.50
2023-03-17T13:16:04.322Z,427.50
2023-03-17T13:17:04.257Z,472.50
2023-03-17T13:18:04.254Z,455.63
2023-03-17T13:19:04.267Z,472.50
2023-03-17T13:20:04.275Z,534.38
2023-03-17T13:21:04.255Z,540.00
2023-03-17T13:22:04.270Z,562.50
2023-03-17T13:23:04.311Z,540.00
2023-03-17T13:24:04.278Z,534.38
2023-03-17T13:25:04.305Z,483.75
2023-03-17T13:26:04.292Z,438.75
2023-03-17T13:27:04.297Z,433.13
2023-03-17T13:28:04.339Z,461.25
2023-03-17T13:29:04.272Z,433.13
2023-03-17T13:30:04.269Z,371.25
2023-03-17T13:31:04.386Z,393.75
2023-03-17T13:32:04.285Z,450.00
2023-03-17T13:33:04.421Z,438.75
2023-03-17T13:34:04.314Z,382.50
2023-03-17T13:35:04.301Z,421.88
2023-03-17T13:36:04.324Z,399.38
2023-03-17T13:37:04.325Z,348.75
2023-03-17T13:38:04.287Z,303.75
2023-03-17T13:39:18.669Z,247.50
2023-03-17T13:40:04.295Z,225.00
2023-03-17T13:41:04.321Z,213.75
2023-03-17T13:42:15.590Z,270.00
2023-03-17T13:43:04.296Z,230.63
2023-03-17T13:44:04.308Z,230.63
2023-03-17T13:45:04.318Z,247.50
2023-03-17T13:46:04.337Z,225.00
2023-03-17T13:47:04.437Z,298.13
2023-03-17T13:48:04.313Z,230.63
2023-03-17T13:49:04.347Z,292.50
2023-03-17T13:50:04.297Z,331.88
2023-03-17T13:51:04.326Z,337.50
2023-03-17T13:52:04.328Z,365.63
2023-03-17T13:53:04.369Z,298.13
2023-03-17T13:54:04.339Z,376.88
2023-03-17T13:55:04.329Z,365.63
2023-03-17T13:56:04.379Z,371.25
2023-03-17T13:57:04.322Z,376.88
2023-03-17T13:58:04.305Z,376.88
2023-03-17T13:59:04.310Z,354.38
2023-03-17T14:00:04.316Z,343.13
2023-03-17T14:01:04.412Z,382.50
2023-03-17T14:02:04.327Z,410.63
2023-03-17T14:03:04.332Z,360.00
2023-03-17T14:04:04.398Z,354.38
2023-03-17T14:05:04.344Z,213.75
2023-03-17T14:06:04.334Z,168.75
2023-03-17T14:07:04.401Z,140.63
2023-03-17T14:08:04.311Z,112.50
2023-03-17T14:09:04.348Z,95.63
2023-03-17T14:10:04.333Z,90.00
2023-03-17T14:11:04.336Z,90.00
2023-03-17T14:12:04.518Z,95.63
2023-03-17T14:13:04.348Z,112.50
2023-03-17T14:14:04.328Z,123.75
2023-03-17T14:15:06.491Z,135.00
2023-03-17T14:16:04.428Z,146.25
2023-03-17T14:17:04.333Z,157.50
2023-03-17T14:18:04.381Z,180.00
2023-03-17T14:19:04.320Z,286.88
2023-03-17T14:20:04.341Z,225.00
2023-03-17T14:21:07.485Z,354.38
2023-03-17T14:22:04.595Z,466.88
2023-03-17T14:23:04.362Z,528.75
2023-03-17T14:24:04.369Z,573.75
2023-03-17T14:25:04.364Z,635.63
2023-03-17T14:26:04.326Z,579.38
2023-03-17T14:27:04.338Z,416.25
2023-03-17T14:28:04.335Z,382.50
2023-03-17T14:29:04.358Z,365.63
2023-03-17T14:30:04.312Z,264.38
2023-03-17T14:31:04.334Z,433.13
2023-03-17T14:32:04.403Z,298.13
2023-03-17T14:33:04.421Z,438.75
2023-03-17T14:34:04.358Z,354.38
2023-03-17T14:35:04.325Z,382.50
2023-03-17T14:36:04.414Z,348.75
2023-03-17T14:37:04.347Z,270.00
2023-03-17T14:38:04.358Z,247.50
2023-03-17T14:39:04.350Z,236.25
2023-03-17T14:40:04.314Z,236.25
2023-03-17T14:41:04.356Z,230.63
2023-03-17T14:42:04.419Z,219.38
2023-03-17T14:43:04.336Z,208.13
2023-03-17T14:44:04.339Z,202.50
2023-03-17T14:45:04.331Z,208.13
2023-03-17T14:46:04.435Z,247.50
2023-03-17T14:47:04.316Z,292.50
2023-03-17T14:48:04.319Z,326.25
2023-03-17T14:49:04.387Z,371.25
2023-03-17T14:50:04.328Z,360.00
2023-03-17T14:51:04.337Z,326.25
2023-03-17T14:52:04.333Z,343.13
2023-03-17T14:53:04.356Z,343.13
2023-03-17T14:54:04.342Z,348.75
2023-03-17T14:55:04.350Z,365.63
2023-03-17T14:56:04.334Z,388.13
2023-03-17T14:57:04.328Z,382.50
2023-03-17T14:58:04.328Z,348.75
2023-03-17T14:59:04.332Z,393.75
2023-03-17T15:00:04.330Z,331.88
2023-03-17T15:01:04.430Z,360.00
2023-03-17T15:02:04.384Z,371.25
2023-03-17T15:03:04.320Z,320.63
2023-03-17T15:04:04.332Z,264.38
2023-03-17T15:05:04.318Z,258.75
2023-03-17T15:06:04.340Z,241.88
2023-03-17T15:07:04.334Z,225.00
2023-03-17T15:08:04.333Z,213.75
2023-03-17T15:09:04.334Z,213.75
2023-03-17T15:10:04.326Z,202.50
2023-03-17T15:11:04.353Z,202.50
2023-03-17T15:12:04.326Z,191.25
2023-03-17T15:13:04.479Z,180.00
2023-03-17T15:14:04.326Z,168.75
2023-03-17T15:15:04.318Z,163.13
2023-03-17T15:16:04.337Z,151.88
2023-03-17T15:17:04.494Z,146.25
2023-03-17T15:18:04.338Z,135.00
2023-03-17T15:19:04.322Z,129.38
2023-03-17T15:20:04.317Z,123.75
2023-03-17T15:21:04.320Z,123.75
2023-03-17T15:22:04.329Z,118.13
2023-03-17T15:23:04.327Z,112.50
2023-03-17T15:24:04.342Z,106.88
2023-03-17T15:25:04.314Z,101.25
2023-03-17T15:26:04.317Z,95.63
2023-03-17T15:27:04.310Z,95.63
2023-03-17T15:28:04.324Z,95.63
2023-03-17T15:29:04.324Z,90.00
2023-03-17T15:30:04.311Z,90.00
2023-03-17T15:31:04.376Z,90.00
2023-03-17T15:32:04.303Z,84.38
2023-03-17T15:33:04.351Z,84.38
2023-03-17T15:34:04.300Z,84.38
2023-03-17T15:35:04.308Z,84.38
2023-03-17T15:36:04.392Z,84.38
2023-03-17T15:37:04.306Z,78.75
2023-03-17T15:38:04.288Z,78.75
2023-03-17T15:39:04.293Z,78.75
2023-03-17T15:40:04.309Z,73.13
2023-03-17T15:41:04.314Z,67.50
2023-03-17T15:42:04.293Z,67.50
2023-03-17T15:43:04.297Z,61.88
2023-03-17T15:44:05.302Z,56.25
2023-03-17T15:45:04.288Z,56.25
2023-03-17T15:46:04.369Z,50.63
2023-03-17T15:47:04.305Z,50.63
2023-03-17T15:48:04.301Z,50.63
2023-03-17T15:49:04.329Z,50.63
2023-03-17T15:50:04.349Z,50.63
2023-03-17T15:51:04.287Z,50.63
2023-03-17T15:52:04.324Z,50.63
2023-03-17T15:53:04.276Z,50.63
2023-03-17T15:54:04.285Z,50.63
2023-03-17T15:55:05.734Z,56.25
2023-03-17T15:56:04.279Z,56.25
2023-03-17T15:57:04.279Z,50.63
2023-03-17T15:58:04.292Z,50.63
2023-03-17T15:59:04.285Z,50.63
2023-03-17T16:00:04.410Z,45.00
2023-03-17T16:01:04.355Z,45.00
2023-03-17T16:12:42.454Z,22.50
2023-03-17T16:13:42.407Z,16.88
2023-03-17T16:14:42.397Z,16.88
2023-03-17T16:15:42.394Z,22.50
2023-03-17T16:16:42.409Z,22.50
2023-03-17T16:17:42.375Z,22.50
2023-03-17T16:18:42.394Z,22.50
2023-03-17T16:19:42.402Z,22.50
2023-03-17T16:20:42.402Z,22.50
2023-03-17T16:21:42.413Z,22.50
2023-03-17T16:22:42.356Z,28.13
2023-03-17T16:23:42.354Z,28.13
2023-03-17T16:24:42.372Z,28.13
2023-03-17T16:25:42.385Z,28.13
2023-03-17T16:26:42.351Z,22.50
2023-03-17T16:27:42.357Z,22.50
2023-03-17T16:28:42.418Z,22.50
2023-03-17T16:29:42.344Z,22.50
2023-03-17T16:30:42.357Z,16.88
2023-03-17T16:31:42.334Z,16.88
2023-03-17T16:32:42.360Z,16.88
2023-03-17T16:33:42.365Z,16.88
2023-03-17T16:34:42.335Z,11.25
2023-03-17T16:35:42.357Z,11.25
2023-03-17T16:36:42.322Z,11.25
2023-03-17T16:37:42.326Z,11.25
2023-03-17T16:38:42.345Z,11.25
2023-03-17T16:39:42.319Z,11.25
2023-03-17T16:40:42.304Z,11.25
2023-03-17T16:41:42.328Z,11.25
2023-03-17T16:42:42.307Z,11.25
2023-03-17T16:43:42.318Z,11.25
2023-03-17T16:44:42.396Z,11.25
2023-03-17T16:45:42.305Z,11.25
2023-03-17T16:46:42.309Z,11.25
2023-03-17T16:47:42.290Z,11.25
2023-03-17T16:48:42.328Z,11.25
2023-03-17T16:49:42.305Z,11.25
2023-03-17T16:50:42.290Z,11.25
2023-03-17T16:51:42.277Z,5.63
2023-03-17T16:52:42.305Z,5.63
2023-03-17T16:53:42.281Z,5.63
2023-03-17T16:54:42.291Z,5.63
2023-03-17T16:55:42.270Z,5.63
2023-03-17T16:56:42.419Z,5.63
2023-03-17T16:57:42.275Z,5.63
2023-03-17T16:58:42.295Z,5.63
2023-03-17T16:59:42.269Z,5.63
2023-03-17T17:00:42.281Z,5.63
2023-03-17T17:01:42.304Z,5.63
2023-03-17T17:02:42.303Z,0.00
2023-03-17T17:03:42.264Z,0.00
2023-03-17T17:04:42.265Z,0.00
2023-03-17T17:05:42.240Z,0.00
2023-03-17T17:06:42.260Z,0.00
2023-03-17T17:07:42.242Z,0.00
2023-03-17T17:08:42.229Z,0.00
2023-03-17T17:09:42.260Z,0.00
2023-03-17T17:10:42.238Z,0.00
2023-03-17T17:11:42.222Z,0.00
2023-03-17T17:12:42.225Z,0.00
2023-03-17T17:13:42.265Z,0.00
2023-03-17T17:14:42.227Z,0.00
2023-03-17T17:15:42.204Z,0.00
2023-03-17T17:16:42.277Z,0.00
2023-03-17T17:17:42.206Z,0.00